Houstonia, MO

5:50 PM CDT on March 26, 2015 (GMT -0500)
KMOSEDAL5 | | Change Station
CLOSE
Current Station
Personal Weather Station
Location: Sedalia, MO
Elevation: 837 ft
Nearby Weather Stations

Elev 837 ft 38.70 °N, 93.29 °W | Updated 4 seconds ago

Clear
Clear
49.9 °F
Feels Like 48 °F
N
5.0
Wind Variable Wind from NW
Gusts 12.0 mph

Today
High -- | Low -- °F
--% Chance of Precip.
Yesterday
High -- | Low -- °F
Precip. -- in
7:07 AM 7:31 PM
Waxing Crescent, 46% visible
Pressure 30.10 in
Visibility 10.0 miles
Clouds Clear
Windchill 48 °F
Dew Point 32 °F
Humidity 49%
Rainfall 0.02 in
Snow Depth Not available.
UV 3 out of 12
Pollen 7.90 out of 12
Air Quality Not available.
Flu Activity Not available.
METAR KSZL 262158Z AUTO 33008KT 10SM CLR 10/M03 A3008 RMK AO2 SLP192 T01021027 $

More Conditions Fewer Conditions

Pressure 30.10 in
Visibility 10.0 miles
Clouds Clear
Windchill 48 °F
Dew Point 32 °F
Humidity 49%
Rainfall 0.02 in
Snow Depth Not available.
UV 3 out of 12
Pollen 7.90 out of 12
Air Quality Not available.
Flu Activity Not available.
METAR KSZL 262158Z AUTO 33008KT 10SM CLR 10/M03 A3008 RMK AO2 SLP192 T01021027 $

More Conditions Fewer Conditions

10-Day Weather Forecast

Almanac

Astronomy

Mar. 26, 2015 Rise Set
Actual Time
Civil Twilight
Nautical Twilight
Astronomical Twilight
Moon
Length of Visible Light
Length of Day
Tomorrow will be .
, % of the Moon is Illuminated

Today's Extremes

State Highs State Lows

Community

WunderPhotos

Upload Photos

1,808,629 photos uploaded!

WunderBlogs® & News

Nearby

Air Quality

  Air Quality AQ Index Pollutant
Not available.

Snow Depth

Station Depth Elevation

Earthquake Activity

City Distance Mag. Time & Date
Minimum magnitude displayed is 2.5.

Coastal Water Temperatures

Place Temperature

Stations

Nearby Weather Stations

Station Location Temp. Windchill Dew Point Humidity Wind Precip. Elev Updated Type